Terminal Aerodrome Forecast
Issued by NWS Missoula, MT

Home | Current Version | Previous Version | Text Only | Print | Product List | Glossary On
Versions: 1 2 3 4 5 6 7 8 9 10 11 12 13 14 15 16 17
184
FTUS45 KMSO 200529
TAFBTM
TAF
KBTM 200529Z 2006/2106 17012G25KT P6SM SCT200
     FM201000 17008KT P6SM BKN200
     FM201900 30012G22KT P6SM VCSH BKN090
     FM210200 30010KT P6SM BKN090=

USA.gov is the U.S. government's official web portal to all federal, state and local government web resources and services.